Time;durP1;ratioP1;P1;durP2;ratioP2;P2;SDS_P1;SDS_P2;PMS_P1;PMS_P2;Temp;Humidity;BMP_temperature;BMP_pressure;BME280_temperature;BME280_humidity;BME280_pressure;Samples;Min_cycle;Max_cycle;Signal;HPM_P1;HPM_P2
2022/03/06 00:01:09;;;;;;;28.00;15.00;;;;;;;-1.44;59.40;101417.25;84571;1333;22615;-73
2022/03/06 00:03:21;;;;;;;26.40;16.10;;;;;;;-1.44;59.36;101421.35;84601;1330;22990;-73
2022/03/06 00:05:34;;;;;;;25.60;13.80;;;;;;;-1.46;59.35;101423.71;84605;1329;25292;-73
2022/03/06 00:07:43;;;;;;;24.50;13.70;;;;;;;-1.46;59.41;101425.77;84605;1329;22581;-73
2022/03/06 00:09:55;;;;;;;22.00;12.50;;;;;;;-1.47;59.93;101428.98;84621;1331;23906;-80
2022/03/06 00:12:05;;;;;;;19.90;12.70;;;;;;;-1.48;60.17;101429.63;83868;1332;1003580;-80
2022/03/06 00:14:15;;;;;;;16.60;10.50;;;;;;;-1.47;60.55;101434.11;84603;1329;22734;-79
2022/03/06 00:16:27;;;;;;;18.50;10.50;;;;;;;-1.48;60.48;101431.02;84602;1333;22818;-81
2022/03/06 00:18:37;;;;;;;15.80;10.20;;;;;;;-1.46;60.63;101430.38;84598;1329;22590;-79
2022/03/06 00:20:46;;;;;;;15.60;9.50;;;;;;;-1.45;60.57;101429.73;84636;1329;25448;-71
2022/03/06 00:22:59;;;;;;;17.40;11.70;;;;;;;-1.43;60.54;101425.83;84619;1329;23968;-72
2022/03/06 00:25:10;;;;;;;21.50;12.80;;;;;;;-1.40;60.83;101426.95;84603;1329;24273;-80
2022/03/06 00:27:23;;;;;;;18.70;11.50;;;;;;;-1.37;60.72;101426.36;84589;1330;22651;-80
2022/03/06 00:29:32;;;;;;;16.80;10.80;;;;;;;-1.35;60.63;101430.68;84599;1324;22633;-79
2022/03/06 00:31:42;;;;;;;18.20;11.80;;;;;;;-1.33;60.42;101427.15;84548;1331;22813;-80
2022/03/06 00:33:53;;;;;;;17.10;11.50;;;;;;;-1.31;60.13;101430.81;84572;1332;25450;-80
2022/03/06 00:36:06;;;;;;;20.60;11.80;;;;;;;-1.29;59.83;101427.23;84625;1329;22622;-71
2022/03/06 00:38:16;;;;;;;22.30;12.50;;;;;;;-1.30;59.48;101421.59;84558;1334;24280;-72
2022/03/06 00:40:26;;;;;;;22.00;12.40;;;;;;;-1.30;59.85;101421.92;84629;1330;25318;-73
2022/03/06 00:42:36;;;;;;;19.00;12.60;;;;;;;-1.29;59.50;101420.73;84608;1330;22675;-73
2022/03/06 00:44:45;;;;;;;21.60;13.30;;;;;;;-1.30;59.36;101419.02;84617;1330;22609;-80
2022/03/06 00:46:57;;;;;;;21.10;12.80;;;;;;;-1.32;59.33;101420.69;84599;1329;22620;-80
2022/03/06 00:49:08;;;;;;;19.20;12.20;;;;;;;-1.34;59.41;101416.15;84602;1329;22639;-80
2022/03/06 00:51:18;;;;;;;23.90;12.50;;;;;;;-1.35;59.92;101412.72;84556;1333;22628;-72
2022/03/06 00:53:30;;;;;;;22.20;12.10;;;;;;;-1.36;60.43;101415.60;84590;1329;22598;-71
2022/03/06 00:55:39;;;;;;;15.20;10.20;;;;;;;-1.36;60.39;101413.20;84569;1333;22832;-80
2022/03/06 00:57:48;;;;;;;15.70;10.90;;;;;;;-1.37;60.47;101410.11;84579;1332;24227;-80
2022/03/06 00:59:57;;;;;;;18.40;11.60;;;;;;;-1.39;60.73;101413.48;84629;1325;22593;-72
2022/03/06 01:02:10;;;;;;;16.30;11.30;;;;;;;-1.41;61.24;101412.39;84580;1332;23046;-73
2022/03/06 01:04:19;;;;;;;15.10;10.90;;;;;;;-1.42;61.42;101414.41;84590;1330;22591;-72
2022/03/06 01:06:29;;;;;;;19.20;11.10;;;;;;;-1.44;61.61;101413.15;84586;1329;22589;-73
2022/03/06 01:08:38;;;;;;;19.00;10.90;;;;;;;-1.47;61.69;101411.54;84571;1330;22677;-72
2022/03/06 01:10:48;;;;;;;16.90;10.50;;;;;;;-1.49;61.65;101406.69;84551;1335;24242;-81
2022/03/06 01:12:57;;;;;;;19.20;10.40;;;;;;;-1.50;61.90;101400.83;84631;1330;22635;-81
2022/03/06 01:15:11;;;;;;;21.80;11.00;;;;;;;-1.51;61.82;101404.05;84588;1332;22881;-80
2022/03/06 01:17:26;;;;;;;16.40;11.00;;;;;;;-1.53;62.33;101402.64;83926;1329;1002822;-80
2022/03/06 01:19:36;;;;;;;24.20;12.00;;;;;;;-1.52;62.53;101400.97;84637;1330;22602;-80
2022/03/06 01:21:45;;;;;;;16.90;12.50;;;;;;;-1.50;62.61;101402.54;84684;1329;22672;-80
2022/03/06 01:23:54;;;;;;;16.00;11.00;;;;;;;-1.47;62.78;101396.30;84684;1329;24273;-80
2022/03/06 01:26:03;;;;;;;16.80;9.90;;;;;;;-1.43;62.34;101395.02;84591;1329;24858;-72
2022/03/06 01:28:15;;;;;;;17.40;10.70;;;;;;;-1.41;62.27;101392.70;84600;1330;22637;-71
2022/03/06 01:30:25;;;;;;;18.80;11.70;;;;;;;-1.40;62.12;101392.20;84609;1329;24249;-81
2022/03/06 01:32:34;;;;;;;20.50;12.20;;;;;;;-1.40;62.07;101393.23;84686;1330;22618;-81
2022/03/06 01:34:42;;;;;;;;;;;;;;;-1.39;61.89;101392.58;84615;1330;22951;-72
2022/03/06 01:36:51;;;;;;;16.40;10.80;;;;;;;-1.42;62.21;101392.66;84658;1329;23832;-72
2022/03/06 01:39:00;;;;;;;22.00;12.50;;;;;;;-1.42;62.52;101392.66;83880;1330;1003020;-74
2022/03/06 01:41:09;;;;;;;20.90;13.20;;;;;;;-1.42;62.45;101392.34;84612;1330;22614;-80
2022/03/06 01:43:21;;;;;;;22.20;13.60;;;;;;;-1.42;62.23;101394.05;84593;1329;24287;-81
2022/03/06 01:45:31;;;;;;;19.40;12.70;;;;;;;-1.41;62.36;101392.35;84605;1329;22668;-80
2022/03/06 01:47:44;;;;;;;16.80;10.00;;;;;;;-1.43;62.22;101389.21;84598;1329;22624;-80
2022/03/06 01:49:57;;;;;;;24.00;13.90;;;;;;;-1.44;61.83;101390.71;84630;1329;23860;-72
2022/03/06 01:52:07;;;;;;;22.00;13.20;;;;;;;-1.46;61.52;101389.65;84316;1328;458695;-72
2022/03/06 01:54:18;;;;;;;24.40;13.90;;;;;;;-1.47;61.81;101389.09;84551;1331;22593;-73
2022/03/06 01:56:27;;;;;;;21.10;13.00;;;;;;;-1.49;61.63;101389.55;84665;1328;22904;-72
2022/03/06 01:58:36;;;;;;;22.10;13.70;;;;;;;-1.50;61.40;101386.96;83890;1330;1003112;-72
2022/03/06 02:00:50;;;;;;;25.30;13.40;;;;;;;-1.51;61.51;101388.30;84537;1327;22844;-72
2022/03/06 02:02:59;;;;;;;23.40;13.70;;;;;;;-1.54;61.41;101384.48;84614;1325;22587;-72
2022/03/06 02:05:10;;;;;;;21.00;13.60;;;;;;;-1.56;61.92;101381.51;83999;1329;1003606;-72
2022/03/06 02:07:23;;;;;;;22.80;13.30;;;;;;;-1.58;61.43;101378.20;84583;1328;22763;-72
2022/03/06 02:09:33;;;;;;;27.70;14.80;;;;;;;-1.61;61.51;101378.98;84560;1330;22618;-71
2022/03/06 02:11:42;;;;;;;21.10;13.90;;;;;;;-1.63;61.96;101378.41;84669;1329;24586;-72
2022/03/06 02:13:51;;;;;;;22.90;13.70;;;;;;;-1.65;62.50;101377.66;84660;1330;22632;-72
2022/03/06 02:16:03;;;;;;;20.50;14.10;;;;;;;-1.67;62.21;101372.67;84006;1330;1003454;-80
2022/03/06 02:18:15;;;;;;;25.80;14.40;;;;;;;-1.68;62.09;101370.91;84671;1328;25495;-80
2022/03/06 02:20:27;;;;;;;19.90;13.30;;;;;;;-1.70;62.47;101372.90;84691;1328;22584;-72
2022/03/06 02:22:38;;;;;;;24.50;13.90;;;;;;;-1.72;62.91;101370.97;84590;1330;24382;-72
2022/03/06 02:24:50;;;;;;;25.70;14.20;;;;;;;-1.73;63.07;101371.79;84626;1328;25307;-73
2022/03/06 02:26:59;;;;;;;20.90;13.50;;;;;;;-1.74;62.80;101369.89;84624;1329;22603;-73
2022/03/06 02:29:11;;;;;;;16.60;11.80;;;;;;;-1.74;62.84;101364.92;83967;1328;1003154;-75
2022/03/06 02:31:19;;;;;;;18.60;11.10;;;;;;;-1.73;62.66;101362.91;84653;1328;25262;-80
2022/03/06 02:33:29;;;;;;;21.30;11.90;;;;;;;-1.70;62.26;101360.42;84661;1328;22656;-81
2022/03/06 02:35:38;;;;;;;16.60;10.70;;;;;;;-1.68;61.97;101360.14;84574;1329;22606;-81
2022/03/06 02:37:46;;;;;;;13.50;9.70;;;;;;;-1.63;61.36;101361.28;84597;1329;25436;-81
2022/03/06 02:39:59;;;;;;;12.50;8.90;;;;;;;-1.59;60.45;101361.92;84631;1329;23887;-73
2022/03/06 02:42:09;;;;;;;11.30;8.30;;;;;;;-1.57;60.31;101362.00;84607;1330;23197;-73
2022/03/06 02:44:18;;;;;;;12.90;8.10;;;;;;;-1.56;60.43;101359.27;84561;1329;22808;-73
2022/03/06 02:46:27;;;;;;;11.10;8.10;;;;;;;-1.56;60.88;101356.37;84522;1330;22603;-72
2022/03/06 02:48:37;;;;;;;14.80;9.10;;;;;;;-1.54;60.71;101353.30;84538;1332;23798;-73
2022/03/06 02:50:45;;;;;;;13.40;9.40;;;;;;;-1.56;61.15;101353.81;84605;1330;25544;-72
2022/03/06 02:52:56;;;;;;;16.20;10.10;;;;;;;-1.57;61.07;101352.23;84540;1329;22923;-72
2022/03/06 02:55:09;;;;;;;14.20;10.90;;;;;;;-1.60;61.59;101348.73;83917;1327;1005509;-80
2022/03/06 02:57:18;;;;;;;17.70;12.00;;;;;;;-1.62;61.84;101353.96;84553;1332;25288;-81
2022/03/06 02:59:27;;;;;;;16.70;10.80;;;;;;;-1.65;61.81;101355.10;84594;1329;22611;-79
2022/03/06 03:01:41;;;;;;;16.70;11.40;;;;;;;-1.68;61.86;101354.14;84592;1329;22592;-80
2022/03/06 03:03:52;;;;;;;21.00;11.80;;;;;;;-1.72;62.13;101353.52;84586;1329;22590;-81
2022/03/06 03:06:01;;;;;;;21.10;11.90;;;;;;;-1.75;62.52;101353.61;84606;1327;23138;-73
2022/03/06 03:08:10;;;;;;;18.80;12.60;;;;;;;-1.78;62.51;101351.48;84502;1332;24303;-72
2022/03/06 03:10:22;;;;;;;16.50;11.40;;;;;;;-1.80;62.67;101353.98;84572;1329;23761;-80
2022/03/06 03:12:31;;;;;;;17.00;11.40;;;;;;;-1.83;63.04;101351.19;83889;1329;1003203;-80
2022/03/06 03:14:40;;;;;;;18.00;11.80;;;;;;;-1.85;62.63;101357.11;84563;1331;22578;-72
2022/03/06 03:16:52;;;;;;;21.90;13.30;;;;;;;-1.87;62.39;101355.33;84557;1330;22713;-72
2022/03/06 03:19:06;;;;;;;17.50;12.20;;;;;;;-1.88;62.57;101358.36;83887;1329;1003188;-73
2022/03/06 03:21:15;;;;;;;11.20;7.60;;;;;;;-1.89;61.79;101350.81;84612;1325;22752;-72
2022/03/06 03:23:28;;;;;;;8.70;6.70;;;;;;;-1.89;60.98;101352.53;84607;1329;24248;-71
2022/03/06 03:25:40;;;;;;;8.80;6.20;;;;;;;-1.89;60.36;101355.27;84542;1330;23922;-80
2022/03/06 03:27:49;;;;;;;9.30;5.90;;;;;;;-1.88;60.25;101354.45;84619;1325;22872;-80
2022/03/06 03:29:58;;;;;;;8.30;5.60;;;;;;;-1.87;59.71;101358.05;83871;1331;1003343;-72
2022/03/06 03:32:12;;;;;;;8.00;6.00;;;;;;;-1.88;59.72;101356.16;84580;1327;22723;-72
2022/03/06 03:34:22;;;;;;;9.90;6.10;;;;;;;-1.88;59.34;101354.94;84566;1332;22679;-79
2022/03/06 03:36:31;;;;;;;9.00;6.60;;;;;;;-1.90;59.21;101357.13;83850;1330;1016113;-79
2022/03/06 03:38:40;;;;;;;12.40;6.90;;;;;;;-1.90;59.31;101360.52;84519;1328;22620;-79
2022/03/06 03:40:53;;;;;;;9.00;7.30;;;;;;;-1.91;59.71;101359.31;84536;1332;22904;-79
2022/03/06 03:43:02;;;;;;;11.50;8.50;;;;;;;-1.91;59.94;101359.83;84519;1330;22795;-79
2022/03/06 03:45:14;;;;;;;12.90;9.80;;;;;;;-1.92;59.82;101357.06;84618;1330;22583;-78
2022/03/06 03:47:24;;;;;;;15.30;10.50;;;;;;;-1.94;60.01;101359.39;84520;1330;23974;-80
2022/03/06 03:49:33;;;;;;;15.90;10.10;;;;;;;-1.96;60.68;101354.73;83924;1331;1003536;-73
2022/03/06 03:51:42;;;;;;;15.60;9.50;;;;;;;-1.97;60.73;101358.79;84613;1327;22612;-72
2022/03/06 03:53:54;;;;;;;19.20;10.30;;;;;;;-1.99;60.76;101357.19;84602;1331;22835;-72
2022/03/06 03:56:04;;;;;;;13.70;9.10;;;;;;;-2.00;61.09;101356.31;84546;1333;23083;-79
2022/03/06 03:58:14;;;;;;;16.10;10.40;;;;;;;-2.01;61.35;101357.31;84555;1330;22676;-79
2022/03/06 04:00:24;;;;;;;15.50;10.10;;;;;;;-2.01;61.33;101359.54;84545;1331;22859;-73
2022/03/06 04:02:36;;;;;;;16.90;10.10;;;;;;;-2.03;61.24;101356.74;84541;1332;22598;-73
2022/03/06 04:04:45;;;;;;;16.30;10.00;;;;;;;-2.07;61.15;101354.25;83840;1331;1004305;-73
2022/03/06 04:06:54;;;;;;;15.00;9.80;;;;;;;-2.09;61.75;101359.48;83855;1330;1003867;-73
2022/03/06 04:09:06;;;;;;;16.40;10.00;;;;;;;-2.10;61.67;101359.11;84577;1329;22621;-73
2022/03/06 04:11:17;;;;;;;16.00;9.90;;;;;;;-2.10;61.45;101364.41;84590;1330;22593;-79
2022/03/06 04:13:26;;;;;;;17.30;9.20;;;;;;;-2.12;61.76;101364.54;84517;1332;23043;-78
2022/03/06 04:15:36;;;;;;;10.70;8.30;;;;;;;-2.11;61.93;101365.27;84622;1329;22600;-79
2022/03/06 04:17:45;;;;;;;13.10;8.50;;;;;;;-2.09;61.97;101363.09;84563;1330;22584;-78
2022/03/06 04:19:54;;;;;;;16.20;10.60;;;;;;;-2.04;61.92;101368.50;84640;1330;24994;-72
2022/03/06 04:22:03;;;;;;;14.20;9.50;;;;;;;-2.02;61.79;101366.85;84536;1327;22626;-72
2022/03/06 04:24:13;;;;;;;17.30;11.90;;;;;;;-2.01;61.68;101364.52;84550;1330;22835;-77
2022/03/06 04:26:22;;;;;;;14.20;9.90;;;;;;;-1.98;61.78;101369.87;84579;1329;22607;-79
2022/03/06 04:28:31;;;;;;;14.10;10.40;;;;;;;-1.97;61.99;101369.55;84595;1329;25310;-79
2022/03/06 04:30:40;;;;;;;12.90;8.70;;;;;;;-1.97;61.63;101367.34;84535;1326;22589;-79
2022/03/06 04:32:50;;;;;;;18.00;9.90;;;;;;;-1.99;62.12;101369.02;84607;1329;22640;-79
2022/03/06 04:35:03;;;;;;;13.50;8.10;;;;;;;-2.00;61.88;101371.38;83834;1332;1003268;-72
2022/03/06 04:37:13;;;;;;;17.60;9.30;;;;;;;-1.99;62.21;101372.06;83809;1331;1003057;-79
2022/03/06 04:39:25;;;;;;;16.30;9.70;;;;;;;-1.99;62.02;101374.30;84569;1334;22599;-72
2022/03/06 04:41:34;;;;;;;15.00;9.60;;;;;;;-2.01;61.56;101373.55;84601;1329;24321;-72
2022/03/06 04:43:47;;;;;;;14.30;9.60;;;;;;;-2.03;61.79;101374.69;83837;1332;1003442;-72
2022/03/06 04:45:55;;;;;;;18.50;10.20;;;;;;;-2.04;62.13;101374.33;83860;1332;1003139;-73
2022/03/06 04:48:06;;;;;;;16.90;10.00;;;;;;;-2.05;62.14;101371.58;84535;1331;24204;-73
2022/03/06 04:50:16;;;;;;;19.90;11.50;;;;;;;-2.06;62.52;101373.23;84610;1333;24097;-73
2022/03/06 04:52:26;;;;;;;20.40;10.80;;;;;;;-2.05;62.19;101371.39;84535;1331;22748;-72
2022/03/06 04:54:35;;;;;;;18.40;10.40;;;;;;;-2.04;62.46;101372.63;84626;1333;25326;-72
2022/03/06 04:56:44;;;;;;;14.30;9.30;;;;;;;-2.03;62.23;101367.85;84554;1327;23007;-72
2022/03/06 04:58:57;;;;;;;13.30;7.90;;;;;;;-2.03;61.82;101364.60;84592;1330;22649;-72
2022/03/06 05:01:07;;;;;;;11.20;7.80;;;;;;;-2.03;61.69;101364.42;84566;1332;25259;-79
2022/03/06 05:03:16;;;;;;;13.20;7.70;;;;;;;-2.03;61.65;101365.97;84589;1329;22590;-79
2022/03/06 05:05:25;;;;;;;10.70;7.30;;;;;;;-2.04;61.47;101366.29;83816;1333;1003885;-72
2022/03/06 05:07:34;;;;;;;11.00;7.50;;;;;;;-2.05;61.84;101366.09;84589;1329;22796;-72
2022/03/06 05:09:46;;;;;;;16.30;9.00;;;;;;;-2.05;61.82;101363.52;84546;1332;22640;-79
2022/03/06 05:11:55;;;;;;;12.90;9.20;;;;;;;-2.07;61.85;101365.85;84544;1334;22630;-79
2022/03/06 05:14:05;;;;;;;14.10;8.40;;;;;;;-2.08;62.13;101365.65;84592;1333;24210;-79
2022/03/06 05:16:14;;;;;;;14.60;9.10;;;;;;;-2.09;61.94;101366.49;84602;1330;22601;-72
2022/03/06 05:18:24;;;;;;;19.20;9.40;;;;;;;-2.10;62.00;101368.52;84538;1332;22580;-72
2022/03/06 05:20:36;;;;;;;17.80;10.20;;;;;;;-2.11;62.34;101365.77;84575;1332;22608;-78
2022/03/06 05:22:45;;;;;;;15.00;9.50;;;;;;;-2.11;62.15;101366.62;83842;1331;1002420;-78
2022/03/06 05:24:54;;;;;;;15.50;9.70;;;;;;;-2.11;62.31;101364.73;84609;1314;22607;-72
2022/03/06 05:27:03;;;;;;;18.60;11.40;;;;;;;-2.11;62.32;101363.38;83888;1325;1003670;-72
2022/03/06 05:29:12;;;;;;;20.60;10.00;;;;;;;-2.12;62.58;101362.48;84596;1329;24124;-72
2022/03/06 05:31:21;;;;;;;14.60;10.00;;;;;;;-2.11;62.01;101357.88;84589;1329;24273;-72
2022/03/06 05:33:30;;;;;;;15.50;10.40;;;;;;;-2.12;62.23;101357.00;84549;1327;22593;-72
2022/03/06 05:35:42;;;;;;;16.50;9.70;;;;;;;-2.11;62.43;101359.95;83853;1330;1003551;-78
2022/03/06 05:37:51;;;;;;;12.50;9.30;;;;;;;-2.09;62.20;101359.14;84542;1331;23036;-80
2022/03/06 05:40:01;;;;;;;12.10;7.90;;;;;;;-2.06;62.09;101359.39;84567;1314;22588;-72
2022/03/06 05:42:11;;;;;;;13.80;8.60;;;;;;;-2.03;61.93;101355.38;84537;1328;22591;-73
2022/03/06 05:44:21;;;;;;;15.90;8.40;;;;;;;-2.00;62.10;101359.41;84536;1335;22912;-80
2022/03/06 05:46:30;;;;;;;14.90;8.00;;;;;;;-1.96;62.47;101361.91;84611;1329;22630;-78
2022/03/06 05:48:39;;;;;;;13.60;8.80;;;;;;;-1.91;62.85;101362.91;84609;1325;22883;-78
2022/03/06 05:50:48;;;;;;;14.10;8.50;;;;;;;-1.85;62.51;101365.47;84638;1329;22581;-71
2022/03/06 05:53:01;;;;;;;12.00;8.20;;;;;;;-1.82;62.57;101364.53;84537;1327;22637;-72
2022/03/06 05:55:11;;;;;;;13.20;7.60;;;;;;;-1.77;62.19;101360.92;84530;1331;22636;-72
2022/03/06 05:57:21;;;;;;;14.00;7.60;;;;;;;-1.74;62.47;101360.29;84563;1331;22582;-73
2022/03/06 05:59:30;;;;;;;11.40;7.50;;;;;;;-1.72;62.19;101359.35;84614;1329;22621;-79
2022/03/06 06:01:39;;;;;;;10.90;7.10;;;;;;;-1.70;61.96;101360.59;84589;1329;23118;-79
2022/03/06 06:03:49;;;;;;;11.00;6.40;;;;;;;-1.68;61.68;101358.09;84512;1331;22604;-78
2022/03/06 06:06:02;;;;;;;10.10;8.10;;;;;;;-1.64;61.48;101358.19;84554;1332;25375;-72
2022/03/06 06:08:12;;;;;;;9.90;7.10;;;;;;;-1.62;61.36;101354.83;84546;1331;22602;-72
2022/03/06 06:10:21;;;;;;;13.10;8.10;;;;;;;-1.60;61.71;101354.89;84558;1333;22601;-79
2022/03/06 06:12:33;;;;;;;10.10;7.30;;;;;;;-1.55;61.72;101352.61;83831;1331;1003482;-79
2022/03/06 06:14:42;;;;;;;11.60;7.90;;;;;;;-1.49;61.78;101351.39;83829;1330;1003911;-72
2022/03/06 06:16:51;;;;;;;10.30;7.40;;;;;;;-1.43;61.69;101349.50;84594;1329;24219;-72
2022/03/06 06:19:01;;;;;;;9.40;7.00;;;;;;;-1.37;61.74;101347.80;84524;1330;25331;-72
2022/03/06 06:21:16;;;;;;;9.60;6.90;;;;;;;-1.32;61.36;101349.98;84535;1332;22938;-79
2022/03/06 06:23:25;;;;;;;10.70;7.20;;;;;;;-1.27;61.26;101344.13;84550;1333;22587;-78
2022/03/06 06:25:34;;;;;;;10.30;7.80;;;;;;;-1.22;60.83;101337.23;84600;1329;22589;-78
2022/03/06 06:27:43;;;;;;;10.20;6.50;;;;;;;-1.15;60.75;101334.14;84528;1327;22861;-78
2022/03/06 06:29:52;;;;;;;29.80;15.20;;;;;;;-1.08;60.68;101337.92;84562;1332;22642;-78
2022/03/06 06:32:01;;;;;;;24.20;12.70;;;;;;;-0.98;60.87;101334.05;84592;1329;26219;-79
2022/03/06 06:34:13;;;;;;;17.20;10.10;;;;;;;-0.86;60.48;101334.34;84583;1329;22596;-76
2022/03/06 06:36:23;;;;;;;13.80;9.00;;;;;;;-0.72;60.28;101329.54;84559;1331;22612;-79
2022/03/06 06:38:31;;;;;;;11.60;7.50;;;;;;;-0.58;60.23;101330.38;84536;1328;22698;-80
2022/03/06 06:40:43;;;;;;;13.70;8.10;;;;;;;-0.46;59.50;101330.13;84587;1330;22604;-80
2022/03/06 06:42:52;;;;;;;11.10;7.50;;;;;;;-0.35;59.03;101333.45;84582;1329;24028;-79
2022/03/06 06:45:02;;;;;;;13.20;8.10;;;;;;;-0.22;59.13;101331.51;84604;1329;22600;-73
2022/03/06 06:47:14;;;;;;;12.30;8.20;;;;;;;-0.08;59.27;101328.72;83831;1330;1003376;-73
2022/03/06 06:49:24;;;;;;;17.00;8.20;;;;;;;0.11;59.10;101329.60;83913;1329;1003344;-73
2022/03/06 06:51:33;;;;;;;16.00;6.00;;;;;;;0.37;58.14;101329.95;84608;1329;22907;-73
2022/03/06 06:53:43;;;;;;;9.50;7.20;;;;;;;0.60;56.29;101331.92;84546;1331;22653;-73
2022/03/06 06:55:53;;;;;;;6.00;5.10;;;;;;;0.80;54.50;101332.44;84527;1334;22612;-73
2022/03/06 06:58:02;;;;;;;6.50;5.30;;;;;;;0.89;53.62;101331.41;84580;1329;22718;-73
2022/03/06 07:00:15;;;;;;;8.20;5.30;;;;;;;1.03;53.75;101330.59;84561;1330;22576;-73
2022/03/06 07:02:24;;;;;;;11.20;6.50;;;;;;;1.20;53.15;101326.39;84578;1329;23379;-73
2022/03/06 07:04:33;;;;;;;8.00;5.70;;;;;;;1.32;52.76;101326.92;84543;1330;22584;-80
2022/03/06 07:06:45;;;;;;;9.20;7.10;;;;;;;1.48;52.66;101328.71;84566;1329;26506;-79
2022/03/06 07:08:55;;;;;;;12.20;6.80;;;;;;;1.69;52.62;101330.89;84586;1330;22786;-79
2022/03/06 07:11:04;;;;;;;8.90;6.50;;;;;;;1.88;52.43;101325.13;84587;1329;22744;-73
2022/03/06 07:13:12;;;;;;;11.00;6.80;;;;;;;2.08;51.16;101325.02;84514;1333;22581;-73
2022/03/06 07:15:28;;;;;;;10.30;7.20;;;;;;;2.31;51.41;101324.77;84557;1325;22632;-73
2022/03/06 07:17:38;;;;;;;9.80;6.60;;;;;;;2.71;50.12;101324.16;84554;1330;22586;-72
2022/03/06 07:19:47;;;;;;;8.10;6.70;;;;;;;2.83;49.18;101328.23;84550;1324;22647;-79
2022/03/06 07:21:56;;;;;;;9.40;5.80;;;;;;;2.87;48.50;101324.48;84543;1331;22566;-79
2022/03/06 07:24:06;;;;;;;10.30;5.90;;;;;;;2.89;47.62;101323.62;84553;1330;24446;-79
2022/03/06 07:26:18;;;;;;;8.40;5.60;;;;;;;2.91;47.77;101319.16;84560;1329;27135;-73
2022/03/06 07:28:28;;;;;;;11.90;5.90;;;;;;;3.00;48.13;101320.09;84535;1331;22685;-73
2022/03/06 07:30:40;;;;;;;9.80;5.90;;;;;;;3.14;48.48;101317.27;84616;1326;22580;-80
2022/03/06 07:32:51;;;;;;;7.00;4.80;;;;;;;3.36;47.97;101315.19;84533;1330;24204;-79
2022/03/06 07:35:00;;;;;;;8.50;5.80;;;;;;;3.53;46.84;101318.23;84623;1329;22595;-73
2022/03/06 07:37:12;;;;;;;7.90;4.90;;;;;;;4.26;47.95;101314.23;84550;1331;22586;-73
2022/03/06 07:39:21;;;;;;;6.60;4.70;;;;;;;5.52;46.66;101305.98;84610;1329;22600;-73
2022/03/06 07:41:33;;;;;;;7.40;5.00;;;;;;;6.67;44.78;101305.83;84550;1331;22617;-74
2022/03/06 07:43:42;;;;;;;6.40;5.00;;;;;;;7.77;42.69;101302.90;84549;1329;22600;-73
2022/03/06 07:45:52;;;;;;;5.40;4.80;;;;;;;8.39;40.57;101299.88;84531;1331;22748;-81
2022/03/06 07:48:03;;;;;;;4.90;4.40;;;;;;;8.94;39.94;101297.30;84535;1328;22885;-79
2022/03/06 07:50:14;;;;;;;6.80;5.00;;;;;;;9.28;39.04;101297.77;84559;1327;22753;-80
2022/03/06 07:52:27;;;;;;;5.10;4.30;;;;;;;9.58;38.00;101301.23;84561;1330;22618;-80
2022/03/06 07:54:37;;;;;;;4.80;4.20;;;;;;;9.76;36.95;101295.83;84569;1334;22588;-73
2022/03/06 07:56:46;;;;;;;4.70;4.30;;;;;;;9.89;36.54;101297.14;84556;1330;21982;-72
2022/03/06 07:58:56;;;;;;;5.60;4.80;;;;;;;10.26;35.68;101293.92;84561;1330;23884;-74
2022/03/06 08:01:06;;;;;;;6.20;4.30;;;;;;;10.85;35.38;101289.25;84563;1329;22587;-79
2022/03/06 08:03:18;;;;;;;5.20;4.00;;;;;;;11.45;34.18;101281.95;84546;1333;24247;-80
2022/03/06 08:05:27;;;;;;;5.50;4.50;;;;;;;11.69;32.77;101283.56;84612;1329;23777;-80
2022/03/06 08:07:37;;;;;;;7.40;4.90;;;;;;;12.03;33.16;101282.09;84570;1331;22830;-81
2022/03/06 08:09:46;;;;;;;5.00;4.30;;;;;;;12.68;31.33;101285.32;84579;1333;22772;-80
2022/03/06 08:11:55;;;;;;;4.80;4.00;;;;;;;13.19;31.14;101282.77;84548;1330;22585;-81
2022/03/06 08:14:04;;;;;;;9.10;4.20;;;;;;;13.35;29.29;101285.58;84626;1330;22609;-81
2022/03/06 08:16:13;;;;;;;6.50;4.90;;;;;;;12.68;29.13;101290.77;84552;1330;25293;-81
2022/03/06 08:18:23;;;;;;;5.00;4.30;;;;;;;11.83;28.83;101293.86;84600;1329;25468;-81
2022/03/06 08:20:32;;;;;;;5.60;4.70;;;;;;;11.06;30.06;101293.28;84561;1332;22600;-73
2022/03/06 08:22:47;;;;;;;5.40;4.30;;;;;;;10.53;30.77;101295.77;84556;1331;22582;-73
2022/03/06 08:24:56;;;;;;;5.10;4.40;;;;;;;10.10;31.42;101304.20;84630;1329;24106;-73
2022/03/06 08:27:06;;;;;;;5.40;4.10;;;;;;;9.65;31.57;101307.71;84546;1331;22798;-72
2022/03/06 08:29:15;;;;;;;4.60;3.80;;;;;;;9.18;31.24;101309.27;84605;1329;24726;-78
2022/03/06 08:31:24;;;;;;;5.70;4.60;;;;;;;8.62;31.00;101312.60;84561;1331;22538;-73
2022/03/06 08:33:33;;;;;;;4.90;4.40;;;;;;;8.15;32.12;101314.27;84625;1330;22762;-73
2022/03/06 08:35:46;;;;;;;5.90;4.70;;;;;;;7.82;32.68;101312.23;84643;1330;22877;-80
2022/03/06 08:37:56;;;;;;;6.30;4.00;;;;;;;7.54;33.61;101316.36;84597;1330;24061;-81
2022/03/06 08:40:08;;;;;;;5.50;4.30;;;;;;;7.36;33.54;101314.11;84597;1332;23931;-73
2022/03/06 08:42:19;;;;;;;5.00;4.40;;;;;;;7.15;33.68;101310.67;84608;1331;24947;-80
2022/03/06 08:44:31;;;;;;;7.60;4.80;;;;;;;6.97;34.29;101313.23;84573;1330;25448;-72
2022/03/06 08:46:41;;;;;;;5.20;4.70;;;;;;;6.86;35.00;101314.04;84551;1331;22603;-73
2022/03/06 08:48:50;;;;;;;8.70;5.10;;;;;;;6.78;34.67;101313.56;84543;1330;22604;-72
2022/03/06 08:51:00;;;;;;;7.50;5.60;;;;;;;6.68;34.91;101317.28;84607;1330;22642;-73
2022/03/06 08:53:19;;;;;;;7.20;5.20;;;;;;;6.56;34.99;101317.89;84602;1329;22584;-72
2022/03/06 08:55:29;;;;;;;5.50;4.40;;;;;;;6.48;34.89;101319.32;84608;1330;22629;-81
2022/03/06 08:57:37;;;;;;;9.20;5.60;;;;;;;6.25;34.18;101314.42;84621;1331;22577;-82
2022/03/06 08:59:46;;;;;;;5.50;4.80;;;;;;;5.96;34.45;101316.11;84628;1329;22660;-81
2022/03/06 09:01:56;;;;;;;5.70;4.80;;;;;;;5.81;34.82;101318.37;84621;1330;22712;-80
2022/03/06 09:04:06;;;;;;;8.40;5.00;;;;;;;5.75;35.18;101319.09;84624;1331;22585;-81
2022/03/06 09:06:15;;;;;;;7.00;5.60;;;;;;;5.63;35.14;101319.82;84599;1330;24115;-79
2022/03/06 09:08:24;;;;;;;7.90;5.50;;;;;;;5.45;35.30;101318.47;84572;1327;23021;-83
2022/03/06 09:10:36;;;;;;;7.70;5.40;;;;;;;5.37;35.50;101317.44;84559;1330;22602;-74
2022/03/06 09:12:45;;;;;;;7.10;5.10;;;;;;;5.30;35.34;101314.69;84602;1330;22578;-74
2022/03/06 09:14:55;;;;;;;10.20;5.30;;;;;;;5.16;34.97;101321.27;84572;1331;24607;-75
2022/03/06 09:17:05;;;;;;;8.00;5.30;;;;;;;4.94;36.00;101319.89;84593;1331;22698;-77
2022/03/06 09:19:14;;;;;;;7.70;5.60;;;;;;;4.95;36.68;101319.37;84601;1328;22610;-81
2022/03/06 09:21:23;;;;;;;8.00;5.20;;;;;;;5.05;36.06;101318.52;84564;1331;22623;-82
2022/03/06 09:23:33;;;;;;;5.70;5.10;;;;;;;5.37;36.87;101313.45;84573;1332;23371;-81
2022/03/06 09:25:42;;;;;;;8.40;6.80;;;;;;;6.03;36.74;101304.45;84612;1329;22590;-80
2022/03/06 09:27:54;;;;;;;11.10;7.20;;;;;;;6.71;35.78;101299.39;84570;1335;22732;-72
2022/03/06 09:30:04;;;;;;;6.70;4.50;;;;;;;7.46;34.82;101297.52;84600;1328;22601;-80
2022/03/06 09:32:16;;;;;;;5.30;3.90;;;;;;;8.13;33.37;101298.31;84550;1331;22593;-82
2022/03/06 09:34:25;;;;;;;7.70;4.60;;;;;;;8.24;32.91;101293.64;84593;1330;22756;-71
2022/03/06 09:36:36;;;;;;;7.20;5.50;;;;;;;8.35;32.01;101290.20;84579;1327;22790;-73
2022/03/06 09:38:45;;;;;;;6.10;4.90;;;;;;;8.83;32.32;101285.48;84573;1330;22586;-73
2022/03/06 09:40:59;;;;;;;9.20;5.70;;;;;;;9.00;32.57;101283.45;84556;1332;24641;-72
2022/03/06 09:43:09;;;;;;;4.90;4.40;;;;;;;9.41;32.10;101279.77;84604;1329;25481;-78
2022/03/06 09:45:19;;;;;;;4.70;4.10;;;;;;;9.77;31.36;101277.17;84578;1331;22882;-79
2022/03/06 09:47:31;;;;;;;6.00;4.40;;;;;;;9.76;30.78;101270.20;84563;1330;22768;-74
2022/03/06 09:49:42;;;;;;;5.20;3.50;;;;;;;9.55;30.72;101272.36;84591;1325;22584;-80
2022/03/06 09:51:55;;;;;;;5.40;3.90;;;;;;;9.22;30.50;101275.06;83727;1327;1183106;-81
2022/03/06 09:54:04;;;;;;;5.90;4.50;;;;;;;8.86;30.74;101275.51;84586;1329;22829;-81
2022/03/06 09:56:14;;;;;;;4.00;3.30;;;;;;;8.83;31.64;101269.48;84605;1325;23969;-75
2022/03/06 09:58:25;;;;;;;4.80;3.80;;;;;;;9.04;31.80;101265.64;84579;1332;22596;-73